createdAt,value
2019-05-25T00:00:08.050Z,50.01
2019-05-25T00:01:13.661Z,50.11
2019-05-25T00:02:19.041Z,50.17
2019-05-25T00:03:24.860Z,50.28
2019-05-25T00:04:29.848Z,50.35
2019-05-25T00:05:35.530Z,50.45
2019-05-25T00:06:40.866Z,50.55
2019-05-25T00:07:46.664Z,50.71
2019-05-25T00:08:51.794Z,50.85
2019-05-25T00:09:57.340Z,51.02
2019-05-25T00:11:02.378Z,51.15
2019-05-25T00:12:08.063Z,51.31
2019-05-25T00:13:13.066Z,51.43
2019-05-25T00:14:18.925Z,51.55
2019-05-25T00:15:23.930Z,51.69
2019-05-25T00:16:29.699Z,51.84
2019-05-25T00:17:35.774Z,51.96
2019-05-25T00:18:41.313Z,52.07
2019-05-25T00:19:46.675Z,52.22
2019-05-25T00:20:52.660Z,52.34
2019-05-25T00:21:57.667Z,52.45
2019-05-25T00:23:03.346Z,52.60
2019-05-25T00:24:12.055Z,52.69
2019-05-25T00:25:15.692Z,52.81
2019-05-25T00:26:21.026Z,52.91
2019-05-25T00:27:26.553Z,53.01
2019-05-25T00:28:31.556Z,53.12
2019-05-25T00:29:37.131Z,53.22
2019-05-25T00:30:42.057Z,53.31
2019-05-25T00:31:47.685Z,53.38
2019-05-25T00:32:52.718Z,53.48
2019-05-25T00:33:58.520Z,53.52
2019-05-25T00:35:03.879Z,53.59
2019-05-25T00:36:09.598Z,53.61
2019-05-25T00:37:14.900Z,53.67
2019-05-25T00:38:20.513Z,53.75
2019-05-25T00:39:25.907Z,53.78
2019-05-25T00:40:31.566Z,53.84
2019-05-25T00:41:36.654Z,53.92
2019-05-25T00:42:42.862Z,54.05
2019-05-25T00:43:47.895Z,54.09
2019-05-25T00:44:54.354Z,54.16
2019-05-25T00:45:59.335Z,54.25
2019-05-25T00:47:04.959Z,54.34
2019-05-25T00:48:10.108Z,54.44
2019-05-25T00:49:15.666Z,54.55
2019-05-25T00:50:20.828Z,54.60
2019-05-25T00:51:26.749Z,54.67
2019-05-25T00:52:32.039Z,54.74
2019-05-25T00:53:37.648Z,54.80
2019-05-25T00:54:42.712Z,54.86
2019-05-25T00:55:48.303Z,54.89
2019-05-25T00:56:53.364Z,54.96
2019-05-25T00:57:59.313Z,55.01
2019-05-25T00:59:04.422Z,55.08
2019-05-25T01:00:10.954Z,55.14
2019-05-25T01:01:15.970Z,55.21
2019-05-25T01:02:21.526Z,55.27
2019-05-25T01:03:26.495Z,55.33
2019-05-25T01:04:32.157Z,55.36
2019-05-25T01:05:37.245Z,55.45
2019-05-25T01:06:42.853Z,55.52
2019-05-25T01:07:47.900Z,55.58
2019-05-25T01:08:53.690Z,55.67
2019-05-25T01:09:58.705Z,55.72
2019-05-25T01:11:04.415Z,55.82
2019-05-25T01:12:09.654Z,55.90
2019-05-25T01:13:15.324Z,55.99
2019-05-25T01:14:20.380Z,56.09
2019-05-25T01:15:26.221Z,56.15
2019-05-25T01:16:31.334Z,56.22
2019-05-25T01:17:37.165Z,56.30
2019-05-25T01:18:42.202Z,56.39
2019-05-25T01:19:47.739Z,56.43
2019-05-25T01:20:52.673Z,56.51
2019-05-25T01:21:58.278Z,56.58
2019-05-25T01:23:03.312Z,56.65
2019-05-25T01:24:09.292Z,56.73
2019-05-25T01:25:15.173Z,56.85
2019-05-25T01:26:20.784Z,56.90
2019-05-25T01:27:25.926Z,56.93
2019-05-25T01:28:31.541Z,57.03
2019-05-25T01:29:36.680Z,57.11
2019-05-25T01:30:42.375Z,57.21
2019-05-25T01:31:47.307Z,57.29
2019-05-25T01:32:53.001Z,57.41
2019-05-25T01:33:58.069Z,57.51
2019-05-25T01:35:03.725Z,57.62
2019-05-25T01:36:08.782Z,57.68
2019-05-25T01:37:14.694Z,57.78
2019-05-25T01:38:19.708Z,57.87
2019-05-25T01:39:25.364Z,57.99
2019-05-25T01:40:30.474Z,58.11
2019-05-25T01:41:36.196Z,58.19
2019-05-25T01:42:41.473Z,58.20
2019-05-25T01:43:47.309Z,58.24
2019-05-25T01:44:52.664Z,58.29
2019-05-25T01:45:58.306Z,58.36
2019-05-25T01:47:03.426Z,58.44
2019-05-25T01:48:09.340Z,58.50
2019-05-25T01:49:14.490Z,58.59
2019-05-25T01:50:20.087Z,58.67
2019-05-25T01:51:29.442Z,58.78
2019-05-25T01:52:35.094Z,58.83
2019-05-25T01:53:40.057Z,58.94
2019-05-25T01:54:58.977Z,59.02
2019-05-25T01:55:52.952Z,59.05
2019-05-25T01:56:58.597Z,59.10
2019-05-25T01:58:03.611Z,59.15
2019-05-25T01:59:09.153Z,59.17
2019-05-25T02:00:14.730Z,59.22
2019-05-25T02:01:20.343Z,59.26
2019-05-25T02:02:25.369Z,59.32
2019-05-25T02:03:31.278Z,59.37
2019-05-25T02:04:36.322Z,59.42
2019-05-25T02:05:42.248Z,59.47
2019-05-25T02:06:47.277Z,59.55
2019-05-25T02:07:52.807Z,59.59
2019-05-25T02:08:58.038Z,59.68
2019-05-25T02:10:35.440Z,59.70
2019-05-25T02:11:40.878Z,59.76
2019-05-25T02:12:46.925Z,59.75
2019-05-25T02:16:41.319Z,59.89
2019-05-25T02:17:47.035Z,59.90
2019-05-25T02:18:52.186Z,59.94
2019-05-25T02:19:59.035Z,60.10
2019-05-25T02:21:04.058Z,60.22
2019-05-25T02:22:09.693Z,60.34
2019-05-25T02:23:14.876Z,60.44
2019-05-25T02:24:20.828Z,60.55
2019-05-25T02:25:26.115Z,60.63
2019-05-25T02:26:31.624Z,60.73
2019-05-25T02:27:36.848Z,60.79
2019-05-25T02:28:42.401Z,60.86
2019-05-25T02:29:47.468Z,60.93
2019-05-25T02:30:53.080Z,61.03
2019-05-25T02:31:58.083Z,61.13
2019-05-25T02:33:03.782Z,61.21
2019-05-25T02:34:08.767Z,61.30
2019-05-25T02:35:25.480Z,61.40
2019-05-25T02:36:30.425Z,61.45
2019-05-25T02:37:36.024Z,61.53
2019-05-25T02:38:41.344Z,61.63
2019-05-25T02:39:47.121Z,61.74
2019-05-25T02:40:52.169Z,61.83
2019-05-25T02:41:57.720Z,61.91
2019-05-25T02:43:05.803Z,61.97
2019-05-25T02:44:11.371Z,62.02
2019-05-25T02:45:16.721Z,62.10
2019-05-25T02:46:22.333Z,62.16
2019-05-25T02:47:27.578Z,62.20
2019-05-25T02:48:33.247Z,62.26
2019-05-25T02:49:38.277Z,62.32
2019-05-25T02:50:43.934Z,62.40
2019-05-25T02:51:49.054Z,62.45
2019-05-25T02:52:54.704Z,62.53
2019-05-25T02:53:59.789Z,62.61
2019-05-25T02:55:05.950Z,62.67
2019-05-25T02:56:11.004Z,62.77
2019-05-25T02:57:16.575Z,62.83
2019-05-25T02:58:21.855Z,62.88
2019-05-25T02:59:27.467Z,62.99
2019-05-25T03:00:33.561Z,63.05
2019-05-25T03:01:39.131Z,63.13
2019-05-25T03:02:44.242Z,63.26
2019-05-25T03:03:49.954Z,63.32
2019-05-25T03:04:54.939Z,63.43
2019-05-25T03:06:00.720Z,63.54
2019-05-25T03:07:05.922Z,63.62
2019-05-25T03:08:11.615Z,63.71
2019-05-25T03:09:18.160Z,63.81
2019-05-25T03:10:23.891Z,63.91
2019-05-25T03:11:29.380Z,63.98
2019-05-25T03:12:35.615Z,64.10
2019-05-25T03:13:41.530Z,64.17
2019-05-25T03:14:47.422Z,64.24
2019-05-25T03:15:53.976Z,64.30
2019-05-25T03:16:59.527Z,64.43
2019-05-25T03:18:04.761Z,64.50
2019-05-25T03:19:10.308Z,64.56
2019-05-25T03:20:15.372Z,64.66
2019-05-25T03:21:20.880Z,64.73
2019-05-25T03:22:25.875Z,64.81
2019-05-25T03:23:31.709Z,64.91
2019-05-25T03:24:36.709Z,64.99
2019-05-25T03:25:49.551Z,65.06
2019-05-25T03:26:48.908Z,65.15
2019-05-25T03:27:54.761Z,65.21
2019-05-25T03:28:59.784Z,65.25
2019-05-25T03:30:06.727Z,65.34
2019-05-25T03:31:11.739Z,65.39
2019-05-25T03:32:17.581Z,65.46
2019-05-25T03:33:22.576Z,65.50
2019-05-25T03:34:28.146Z,65.55
2019-05-25T03:35:33.337Z,65.61
2019-05-25T03:36:39.024Z,65.66
2019-05-25T03:37:44.030Z,65.73
2019-05-25T03:38:49.879Z,65.78
2019-05-25T03:39:54.862Z,65.84
2019-05-25T03:41:00.616Z,65.88
2019-05-25T03:42:05.708Z,65.97
2019-05-25T03:43:11.279Z,66.04
2019-05-25T03:44:16.211Z,66.10
2019-05-25T03:45:21.896Z,66.14
2019-05-25T03:46:26.932Z,66.17
2019-05-25T03:47:32.555Z,66.25
2019-05-25T03:48:37.563Z,66.33
2019-05-25T03:49:43.419Z,66.43
2019-05-25T03:50:48.387Z,66.47
2019-05-25T03:51:53.896Z,66.56
2019-05-25T03:52:58.911Z,66.64
2019-05-25T03:54:04.530Z,66.67
2019-05-25T03:55:09.709Z,66.72
2019-05-25T03:56:15.295Z,66.76
2019-05-25T03:57:20.301Z,66.81
2019-05-25T03:58:25.841Z,66.85
2019-05-25T03:59:30.850Z,66.91
2019-05-25T04:00:37.622Z,66.92
2019-05-25T04:01:42.573Z,66.94
2019-05-25T04:02:51.089Z,66.98
2019-05-25T04:03:56.130Z,66.99
2019-05-25T04:05:02.168Z,66.98
2019-05-25T04:06:07.362Z,67.07
2019-05-25T04:07:12.984Z,67.06
2019-05-25T04:08:17.984Z,67.09
2019-05-25T04:09:23.784Z,67.10
2019-05-25T04:10:29.057Z,67.10
2019-05-25T04:11:34.619Z,67.13
2019-05-25T04:12:39.555Z,67.17
2019-05-25T04:13:45.694Z,67.17
2019-05-25T04:14:50.690Z,67.20
2019-05-25T04:15:56.336Z,67.23
2019-05-25T04:17:01.260Z,67.19
2019-05-25T04:18:07.332Z,67.21
2019-05-25T04:19:12.330Z,67.21
2019-05-25T04:20:18.099Z,67.19
2019-05-25T04:21:23.131Z,67.21
2019-05-25T04:22:28.737Z,67.26
2019-05-25T04:23:33.720Z,67.29
2019-05-25T04:24:39.339Z,67.35
2019-05-25T04:25:44.255Z,67.40
2019-05-25T04:26:49.852Z,67.46
2019-05-25T04:27:54.810Z,67.49
2019-05-25T04:29:00.388Z,67.52
2019-05-25T04:30:06.018Z,67.54
2019-05-25T04:31:11.607Z,67.59
2019-05-25T04:32:16.557Z,67.65
2019-05-25T04:33:22.169Z,67.70
2019-05-25T04:34:27.482Z,67.73
2019-05-25T04:35:33.100Z,67.79
2019-05-25T04:36:38.362Z,67.83
2019-05-25T04:37:43.900Z,67.85
2019-05-25T04:38:48.906Z,67.87
2019-05-25T04:39:54.691Z,67.89
2019-05-25T04:40:59.619Z,67.97
2019-05-25T04:42:05.312Z,67.98
2019-05-25T04:43:10.556Z,67.98
2019-05-25T04:44:16.198Z,67.98
2019-05-25T04:45:21.263Z,67.98
2019-05-25T04:46:26.966Z,67.91
2019-05-25T04:47:32.141Z,67.87
2019-05-25T04:48:37.719Z,67.85
2019-05-25T04:49:44.147Z,67.89
2019-05-25T04:50:50.008Z,67.94
2019-05-25T04:51:55.067Z,67.98
2019-05-25T04:53:00.660Z,68.03
2019-05-25T04:54:05.714Z,67.96
2019-05-25T04:55:11.534Z,67.96
2019-05-25T04:56:16.462Z,68.00
2019-05-25T04:57:22.255Z,68.06
2019-05-25T04:58:27.263Z,68.09
2019-05-25T04:59:32.784Z,68.14
2019-05-25T05:00:37.720Z,68.22
2019-05-25T05:01:43.288Z,68.26
2019-05-25T05:02:48.452Z,68.30
2019-05-25T05:03:54.310Z,68.33
2019-05-25T05:04:59.320Z,68.35
2019-05-25T05:06:05.125Z,68.37
2019-05-25T05:07:10.408Z,68.33
2019-05-25T05:08:16.007Z,68.35
2019-05-25T05:09:20.958Z,68.40
2019-05-25T05:10:26.516Z,68.45
2019-05-25T05:11:32.191Z,68.52
2019-05-25T05:12:37.695Z,68.45
2019-05-25T05:13:42.651Z,68.34
2019-05-25T05:14:48.959Z,68.27
2019-05-25T05:15:54.322Z,68.20
2019-05-25T05:17:00.270Z,68.21
2019-05-25T05:18:05.382Z,68.15
2019-05-25T05:19:11.757Z,68.05
2019-05-25T05:20:16.893Z,68.03
2019-05-25T05:21:22.479Z,68.00
2019-05-25T05:22:28.451Z,67.95
2019-05-25T05:23:34.939Z,67.97
2019-05-25T05:24:40.946Z,67.95
2019-05-25T05:25:47.166Z,67.85
2019-05-25T05:26:56.154Z,67.81
2019-05-25T05:28:01.835Z,67.69
2019-05-25T05:29:19.400Z,67.54
2019-05-25T05:30:38.494Z,67.33
2019-05-25T05:31:45.235Z,67.21
2019-05-25T05:32:57.522Z,67.00
2019-05-25T05:34:08.389Z,66.85
2019-05-25T05:35:17.301Z,66.71
2019-05-25T05:36:35.028Z,66.64
2019-05-25T05:37:59.417Z,66.47
2019-05-25T05:39:14.490Z,66.37
2019-05-25T05:40:27.020Z,66.25
2019-05-25T05:41:38.072Z,66.10
2019-05-25T05:42:48.418Z,65.93
2019-05-25T05:44:02.033Z,65.70
2019-05-25T05:45:09.126Z,65.48
2019-05-25T05:46:22.244Z,65.30
2019-05-25T05:47:32.762Z,65.09
2019-05-25T05:48:44.960Z,64.89
2019-05-25T05:50:02.889Z,64.68
2019-05-25T05:51:22.759Z,64.48
2019-05-25T05:52:39.229Z,64.29
2019-05-25T05:53:55.943Z,63.98
2019-05-25T05:55:05.282Z,63.78
2019-05-25T05:56:15.104Z,63.63
2019-05-25T05:57:24.441Z,63.43
2019-05-25T05:58:48.586Z,63.16
2019-05-25T05:59:58.077Z,62.89
2019-05-25T06:01:06.358Z,62.59
2019-05-25T06:02:12.550Z,62.34
2019-05-25T06:03:19.891Z,62.10
2019-05-25T06:04:25.987Z,61.61
2019-05-25T06:05:35.346Z,61.27
2019-05-25T06:06:40.923Z,61.00
2019-05-25T06:07:46.099Z,60.63
2019-05-25T06:08:51.650Z,60.38
2019-05-25T06:09:56.711Z,60.10
2019-05-25T06:11:02.554Z,59.90
2019-05-25T06:12:07.649Z,59.66
2019-05-25T06:13:13.264Z,59.37
2019-05-25T06:14:18.174Z,59.09
2019-05-25T06:15:23.801Z,58.79
2019-05-25T06:16:28.845Z,58.59
2019-05-25T06:17:34.471Z,58.41
2019-05-25T06:18:39.490Z,58.15
2019-05-25T06:19:44.988Z,57.95
2019-05-25T06:20:49.933Z,57.71
2019-05-25T06:21:55.473Z,57.54
2019-05-25T06:23:00.408Z,57.24
2019-05-25T06:24:06.069Z,57.01
2019-05-25T06:25:12.331Z,56.84
2019-05-25T06:26:17.846Z,56.74
2019-05-25T06:27:27.367Z,56.56
2019-05-25T06:28:30.221Z,56.48
2019-05-25T06:29:35.450Z,56.43
2019-05-25T06:30:41.020Z,56.39
2019-05-25T06:31:46.029Z,56.31
2019-05-25T06:32:51.668Z,56.30
2019-05-25T06:33:56.565Z,56.19
2019-05-25T06:35:02.400Z,56.04
2019-05-25T06:36:07.501Z,55.90
2019-05-25T06:37:13.120Z,55.78
2019-05-25T06:38:18.153Z,55.66
2019-05-25T06:39:24.205Z,55.64
2019-05-25T06:40:29.187Z,55.66
2019-05-25T06:41:34.780Z,55.64
2019-05-25T06:42:39.874Z,55.72
2019-05-25T06:43:45.769Z,55.85
2019-05-25T06:44:50.719Z,55.89
2019-05-25T06:45:56.586Z,55.98
2019-05-25T06:47:01.588Z,56.10
2019-05-25T06:48:07.480Z,56.05
2019-05-25T06:49:12.539Z,56.00
2019-05-25T06:50:18.907Z,56.00
2019-05-25T06:51:23.973Z,55.93
2019-05-25T06:52:29.816Z,55.85
2019-05-25T06:53:34.868Z,55.77
2019-05-25T06:54:43.080Z,55.67
2019-05-25T06:55:48.167Z,55.61
2019-05-25T06:56:54.002Z,55.53
2019-05-25T06:57:59.082Z,55.48
2019-05-25T06:59:05.470Z,55.41
2019-05-25T07:00:11.241Z,55.33
2019-05-25T07:01:16.957Z,55.25
2019-05-25T07:02:22.717Z,55.24
2019-05-25T07:03:28.393Z,55.14
2019-05-25T07:04:33.442Z,55.09
2019-05-25T07:05:39.127Z,55.07
2019-05-25T07:06:44.338Z,55.09
2019-05-25T07:07:49.860Z,55.07
2019-05-25T07:08:55.066Z,55.02
2019-05-25T07:10:00.686Z,54.94
2019-05-25T07:11:05.683Z,54.82
2019-05-25T07:12:11.198Z,54.73
2019-05-25T07:13:16.209Z,54.66
2019-05-25T07:14:21.785Z,54.50
2019-05-25T07:15:26.931Z,54.31
2019-05-25T07:16:32.511Z,54.22
2019-05-25T07:17:37.782Z,54.07
2019-05-25T07:18:43.452Z,53.90
2019-05-25T07:19:48.541Z,53.76
2019-05-25T07:20:54.301Z,53.68
2019-05-25T07:21:59.706Z,53.58
2019-05-25T07:23:05.619Z,53.51
2019-05-25T07:24:10.650Z,53.44
2019-05-25T07:25:20.015Z,53.37
2019-05-25T07:26:23.176Z,53.39
2019-05-25T07:27:29.037Z,53.39
2019-05-25T07:28:34.190Z,53.45
2019-05-25T07:29:39.929Z,53.49
2019-05-25T07:30:46.660Z,53.55
2019-05-25T07:31:52.780Z,53.60
2019-05-25T07:32:57.984Z,53.66
2019-05-25T07:34:03.894Z,53.66
2019-05-25T07:35:10.326Z,53.60
2019-05-25T07:36:16.416Z,53.52
2019-05-25T07:37:21.416Z,53.43
2019-05-25T07:38:27.016Z,53.33
2019-05-25T07:39:31.978Z,53.23
2019-05-25T07:40:37.804Z,53.08
2019-05-25T07:41:42.846Z,52.88
2019-05-25T07:42:48.440Z,52.71
2019-05-25T07:43:53.582Z,52.58
2019-05-25T07:44:59.486Z,52.46
2019-05-25T07:46:04.535Z,52.49
2019-05-25T07:47:10.135Z,52.47
2019-05-25T07:48:15.227Z,52.50
2019-05-25T07:49:20.913Z,52.55
2019-05-25T07:50:25.979Z,52.55
2019-05-25T07:51:31.494Z,52.58
2019-05-25T07:52:36.642Z,52.60
2019-05-25T07:53:42.200Z,52.63
2019-05-25T07:54:47.201Z,52.54
2019-05-25T07:55:52.747Z,52.43
2019-05-25T07:56:58.086Z,52.34
2019-05-25T07:58:16.482Z,52.24
2019-05-25T07:59:10.237Z,52.24
2019-05-25T08:00:16.909Z,52.19
2019-05-25T08:01:22.133Z,52.22
2019-05-25T08:02:27.833Z,52.33
2019-05-25T08:03:33.123Z,52.46
2019-05-25T08:04:39.096Z,52.58
2019-05-25T08:05:44.047Z,52.58
2019-05-25T08:06:49.564Z,52.58
2019-05-25T08:07:54.619Z,52.55
2019-05-25T08:09:00.123Z,52.50
2019-05-25T08:10:05.583Z,52.35
2019-05-25T08:11:11.189Z,52.20
2019-05-25T08:12:16.148Z,51.98
2019-05-25T08:13:21.656Z,51.80
2019-05-25T08:14:26.853Z,51.73
2019-05-25T08:15:32.469Z,51.67
2019-05-25T08:16:37.770Z,51.54
2019-05-25T08:17:43.422Z,51.48
2019-05-25T08:18:48.432Z,51.39
2019-05-25T08:19:54.478Z,51.40
2019-05-25T08:20:59.752Z,51.47
2019-05-25T08:22:05.424Z,51.54
2019-05-25T08:23:10.366Z,51.58
2019-05-25T08:24:16.193Z,51.51
2019-05-25T08:25:21.497Z,51.41
2019-05-25T08:26:27.132Z,51.27
2019-05-25T08:27:32.107Z,51.18
2019-05-25T08:28:37.667Z,51.21
2019-05-25T08:29:42.835Z,51.17
2019-05-25T08:30:48.529Z,51.15
2019-05-25T08:31:53.600Z,51.10
2019-05-25T08:32:59.220Z,51.01
2019-05-25T08:34:04.276Z,51.04
2019-05-25T08:35:10.007Z,50.96
2019-05-25T08:36:15.063Z,50.88
2019-05-25T08:37:20.645Z,50.76
2019-05-25T08:38:25.915Z,50.65
2019-05-25T08:39:31.484Z,50.64
2019-05-25T08:40:36.682Z,50.67
2019-05-25T08:41:45.355Z,50.71
2019-05-25T08:42:49.247Z,50.71
2019-05-25T08:43:54.774Z,50.71
2019-05-25T08:45:00.062Z,50.76
2019-05-25T08:46:05.653Z,50.74
2019-05-25T08:47:10.609Z,50.91
2019-05-25T08:48:16.287Z,50.99
2019-05-25T08:49:21.289Z,51.04
2019-05-25T08:50:37.660Z,51.02
2019-05-25T08:51:33.981Z,51.07
2019-05-25T08:52:39.652Z,51.14
2019-05-25T08:53:46.789Z,51.24
2019-05-25T08:54:51.989Z,51.30
2019-05-25T08:55:57.437Z,51.29
2019-05-25T08:57:03.241Z,51.28
2019-05-25T08:58:08.841Z,51.22
2019-05-25T08:59:14.822Z,51.17
2019-05-25T09:00:20.288Z,51.13
2019-05-25T09:01:25.891Z,51.07
2019-05-25T09:02:30.942Z,50.95
2019-05-25T09:03:36.455Z,50.90
2019-05-25T09:04:41.438Z,50.86
2019-05-25T09:05:47.180Z,50.74
2019-05-25T09:06:52.283Z,50.61
2019-05-25T09:07:57.972Z,50.54
2019-05-25T09:09:02.982Z,50.53
2019-05-25T09:10:09.417Z,50.53
2019-05-25T09:11:14.480Z,50.56
2019-05-25T09:12:20.131Z,50.52
2019-05-25T09:13:25.114Z,50.61
2019-05-25T09:14:31.219Z,50.64
2019-05-25T09:15:36.183Z,50.76
2019-05-25T09:16:41.998Z,50.69
2019-05-25T09:17:46.914Z,50.71
2019-05-25T09:18:52.452Z,50.72
2019-05-25T09:19:57.390Z,50.61
2019-05-25T09:21:03.015Z,50.54
2019-05-25T09:22:08.267Z,50.48
2019-05-25T09:23:14.142Z,50.50
2019-05-25T09:24:19.277Z,50.53
2019-05-25T09:25:24.814Z,50.49
2019-05-25T09:26:30.081Z,50.26
2019-05-25T09:27:36.019Z,50.19
2019-05-25T09:28:40.973Z,50.20
2019-05-25T09:29:46.533Z,50.13
2019-05-25T09:30:51.556Z,50.04
2019-05-25T09:31:57.153Z,50.07
2019-05-25T09:33:02.442Z,50.14
2019-05-25T09:34:08.137Z,50.22
2019-05-25T09:35:14.695Z,50.20
2019-05-25T09:36:20.321Z,50.19
2019-05-25T09:37:25.341Z,50.17
2019-05-25T09:38:31.294Z,50.18
2019-05-25T09:39:36.297Z,50.06
2019-05-25T09:40:41.824Z,49.99
2019-05-25T09:41:46.778Z,49.96
2019-05-25T09:42:52.671Z,49.95
2019-05-25T09:43:58.443Z,49.90
2019-05-25T09:45:04.459Z,49.78
2019-05-25T09:46:09.404Z,49.66
2019-05-25T09:47:14.998Z,49.56
2019-05-25T09:48:20.177Z,49.59
2019-05-25T09:49:25.837Z,49.61
2019-05-25T09:50:31.307Z,49.52
2019-05-25T09:51:37.137Z,49.45
2019-05-25T09:52:42.246Z,49.36
2019-05-25T09:53:47.928Z,49.26
2019-05-25T09:54:55.687Z,49.07
2019-05-25T09:56:00.729Z,48.88
2019-05-25T09:57:05.776Z,48.83
2019-05-25T09:58:11.577Z,48.83
2019-05-25T09:59:20.040Z,48.84
2019-05-25T10:00:24.448Z,48.85
2019-05-25T10:01:29.822Z,48.83
2019-05-25T10:02:35.454Z,48.78
2019-05-25T10:03:40.636Z,48.68
2019-05-25T10:04:46.665Z,48.67
2019-05-25T10:05:51.998Z,48.63
2019-05-25T10:06:58.043Z,48.61
2019-05-25T10:08:03.513Z,48.59
2019-05-25T10:09:09.255Z,48.43
2019-05-25T10:10:14.577Z,48.43
2019-05-25T10:11:20.266Z,48.44
2019-05-25T10:12:25.761Z,48.39
2019-05-25T10:13:31.320Z,48.34
2019-05-25T10:14:36.282Z,48.38
2019-05-25T10:15:41.963Z,48.40
2019-05-25T10:16:47.286Z,48.38
2019-05-25T10:17:52.916Z,48.38
2019-05-25T10:18:58.005Z,48.35
2019-05-25T10:20:03.986Z,48.25
2019-05-25T10:21:09.011Z,48.10
2019-05-25T10:22:14.607Z,47.99
2019-05-25T10:23:19.525Z,47.88
2019-05-25T10:24:25.141Z,47.84
2019-05-25T10:25:30.285Z,47.88
2019-05-25T10:26:35.865Z,47.88
2019-05-25T10:27:40.778Z,47.86
2019-05-25T10:28:46.317Z,47.88
2019-05-25T10:29:51.458Z,47.85
2019-05-25T10:30:57.048Z,47.89
2019-05-25T10:32:02.327Z,47.83
2019-05-25T10:33:07.807Z,47.84
2019-05-25T10:34:12.890Z,47.74
2019-05-25T10:35:18.732Z,47.60
2019-05-25T10:36:23.966Z,47.62
2019-05-25T10:37:29.848Z,47.58
2019-05-25T10:38:34.910Z,47.59
2019-05-25T10:39:40.471Z,47.60
2019-05-25T10:40:46.142Z,47.57
2019-05-25T10:41:51.826Z,47.54
2019-05-25T10:42:56.826Z,47.52
2019-05-25T10:44:02.444Z,47.41
2019-05-25T10:45:08.107Z,47.47
2019-05-25T10:46:13.938Z,47.53
2019-05-25T10:47:19.189Z,47.49
2019-05-25T10:48:25.067Z,47.36
2019-05-25T10:49:30.056Z,47.34
2019-05-25T10:50:35.901Z,47.16
2019-05-25T10:51:41.256Z,46.97
2019-05-25T10:52:46.765Z,46.90
2019-05-25T10:53:51.825Z,46.89
2019-05-25T10:54:57.679Z,46.93
2019-05-25T10:56:02.699Z,46.75
2019-05-25T10:57:08.408Z,46.71
2019-05-25T10:58:13.644Z,46.61
2019-05-25T10:59:19.238Z,46.54
2019-05-25T11:00:24.642Z,46.52
2019-05-25T11:01:30.217Z,46.44
2019-05-25T11:02:35.479Z,46.31
2019-05-25T11:03:41.433Z,46.15
2019-05-25T11:04:46.346Z,46.00
2019-05-25T11:05:52.319Z,45.87
2019-05-25T11:06:57.490Z,45.75
2019-05-25T11:08:03.118Z,45.62
2019-05-25T11:09:08.284Z,45.52
2019-05-25T11:10:14.840Z,45.30
2019-05-25T11:11:19.861Z,45.31
2019-05-25T11:12:26.141Z,45.25
2019-05-25T11:13:31.211Z,45.11
2019-05-25T11:14:37.019Z,44.98
2019-05-25T11:15:42.087Z,44.91
2019-05-25T11:16:47.750Z,44.96
2019-05-25T11:17:52.681Z,44.96
2019-05-25T11:18:58.419Z,44.96
2019-05-25T11:20:03.558Z,44.92
2019-05-25T11:21:09.263Z,44.90
2019-05-25T11:22:14.289Z,45.01
2019-05-25T11:23:19.854Z,45.09
2019-05-25T11:24:25.014Z,45.14
2019-05-25T11:25:30.628Z,45.16
2019-05-25T11:26:35.823Z,45.17
2019-05-25T11:27:42.032Z,45.11
2019-05-25T11:28:47.024Z,45.06
2019-05-25T11:30:06.043Z,45.03
2019-05-25T11:30:59.234Z,45.00
2019-05-25T11:32:06.117Z,44.96
2019-05-25T11:33:12.424Z,44.95
2019-05-25T11:34:18.022Z,44.91
2019-05-25T11:35:23.178Z,44.81
2019-05-25T11:36:28.915Z,44.77
2019-05-25T11:37:33.874Z,44.82
2019-05-25T11:38:39.614Z,44.94
2019-05-25T11:39:44.559Z,45.17
2019-05-25T11:40:50.491Z,45.24
2019-05-25T11:41:55.504Z,45.25
2019-05-25T11:43:01.361Z,45.38
2019-05-25T11:44:06.705Z,45.42
2019-05-25T11:45:13.946Z,45.53
2019-05-25T11:46:19.028Z,45.64
2019-05-25T11:47:24.871Z,45.68
2019-05-25T11:48:29.795Z,45.70
2019-05-25T11:49:35.286Z,45.68
2019-05-25T11:50:40.362Z,45.66
2019-05-25T11:51:45.972Z,45.59
2019-05-25T11:52:51.049Z,45.55
2019-05-25T11:53:56.515Z,45.51
2019-05-25T11:55:01.799Z,45.30
2019-05-25T11:56:07.491Z,45.05
2019-05-25T11:57:12.427Z,44.93
2019-05-25T11:58:18.076Z,44.83
2019-05-25T11:59:23.127Z,44.80
2019-05-25T12:00:28.714Z,44.61
2019-05-25T12:01:33.752Z,44.50
2019-05-25T12:02:39.508Z,44.40
2019-05-25T12:03:44.497Z,44.37
2019-05-25T12:04:50.077Z,44.42
2019-05-25T12:05:55.063Z,44.46
2019-05-25T12:07:00.700Z,44.56
2019-05-25T12:08:05.852Z,44.67
2019-05-25T12:09:11.358Z,44.68
2019-05-25T12:10:16.900Z,44.68
2019-05-25T12:11:22.487Z,44.66
2019-05-25T12:12:27.453Z,44.57
2019-05-25T12:13:33.043Z,44.54
2019-05-25T12:14:38.197Z,44.53
2019-05-25T12:15:43.897Z,44.48
2019-05-25T12:16:48.894Z,44.38
2019-05-25T12:17:54.445Z,44.37
2019-05-25T12:18:59.354Z,44.44
2019-05-25T12:20:05.869Z,44.51
2019-05-25T12:21:10.866Z,44.62
2019-05-25T12:22:16.394Z,44.63
2019-05-25T12:23:21.563Z,44.59
2019-05-25T12:24:27.366Z,44.46
2019-05-25T12:25:32.445Z,44.30
2019-05-25T12:26:38.049Z,44.14
2019-05-25T12:27:43.108Z,44.04
2019-05-25T12:28:48.632Z,43.98
2019-05-25T12:29:53.819Z,43.96
2019-05-25T12:30:59.417Z,43.98
2019-05-25T12:32:04.715Z,44.04
2019-05-25T12:33:10.498Z,44.04
2019-05-25T12:34:15.523Z,43.96
2019-05-25T12:35:21.282Z,43.95
2019-05-25T12:36:26.402Z,43.92
2019-05-25T12:37:32.235Z,43.93
2019-05-25T12:38:37.264Z,43.99
2019-05-25T12:39:42.756Z,44.04
2019-05-25T12:40:53.527Z,44.11
2019-05-25T12:41:54.967Z,44.13
2019-05-25T12:42:59.921Z,44.10
2019-05-25T12:44:06.948Z,43.98
2019-05-25T12:45:12.349Z,43.65
2019-05-25T12:46:17.870Z,43.31
2019-05-25T12:47:22.870Z,43.08
2019-05-25T12:48:28.411Z,43.09
2019-05-25T12:49:49.337Z,43.01
2019-05-25T12:50:40.882Z,42.88
2019-05-25T12:51:45.838Z,42.81
2019-05-25T12:52:51.395Z,42.83
2019-05-25T12:53:56.375Z,42.84
2019-05-25T12:55:02.117Z,42.87
2019-05-25T12:56:07.519Z,42.88
2019-05-25T12:57:13.142Z,42.72
2019-05-25T12:58:18.522Z,42.58
2019-05-25T12:59:24.200Z,42.51
2019-05-25T13:00:29.296Z,42.47
2019-05-25T13:01:35.112Z,42.51
2019-05-25T13:02:40.480Z,42.48
2019-05-25T13:03:46.241Z,42.49
2019-05-25T13:04:51.729Z,42.49
2019-05-25T13:05:57.577Z,42.49
2019-05-25T13:07:02.872Z,42.51
2019-05-25T13:08:08.457Z,42.52
2019-05-25T13:09:13.459Z,42.44
2019-05-25T13:10:19.414Z,42.47
2019-05-25T13:11:24.432Z,42.55
2019-05-25T13:12:30.133Z,42.51
2019-05-25T13:13:35.124Z,42.49
2019-05-25T13:14:40.679Z,42.54
2019-05-25T13:15:45.587Z,42.60
2019-05-25T13:16:51.083Z,42.59
2019-05-25T13:17:56.344Z,42.63
2019-05-25T13:19:01.939Z,42.58
2019-05-25T13:20:07.352Z,42.59
2019-05-25T13:21:12.890Z,42.60
2019-05-25T13:22:18.136Z,42.65
2019-05-25T13:23:24.093Z,42.61
2019-05-25T13:24:29.307Z,42.65
2019-05-25T13:25:34.907Z,42.66
2019-05-25T13:26:39.858Z,42.73
2019-05-25T13:27:45.371Z,42.79
2019-05-25T13:28:50.631Z,42.76
2019-05-25T13:29:56.129Z,42.80
2019-05-25T13:31:11.349Z,42.77
2019-05-25T13:32:08.719Z,42.74
2019-05-25T13:33:13.939Z,42.70
2019-05-25T13:34:19.550Z,42.69
2019-05-25T13:35:24.461Z,42.71
2019-05-25T13:36:29.964Z,42.70
2019-05-25T13:37:35.126Z,42.75
2019-05-25T13:38:40.805Z,42.70
2019-05-25T13:39:46.038Z,42.70
2019-05-25T13:40:51.590Z,42.73
2019-05-25T13:41:56.741Z,42.86
2019-05-25T13:43:02.760Z,42.92
2019-05-25T13:44:07.887Z,42.89
2019-05-25T13:45:13.775Z,42.92
2019-05-25T13:46:18.848Z,42.89
2019-05-25T13:47:24.671Z,42.91
2019-05-25T13:48:29.627Z,42.89
2019-05-25T13:49:35.196Z,42.83
2019-05-25T13:50:40.124Z,42.82
2019-05-25T13:51:45.635Z,42.82
2019-05-25T13:52:50.900Z,42.82
2019-05-25T13:53:56.366Z,42.83
2019-05-25T13:55:01.372Z,42.87
2019-05-25T13:56:07.046Z,42.86
2019-05-25T13:57:11.954Z,42.86
2019-05-25T13:58:17.794Z,42.91
2019-05-25T13:59:22.902Z,42.90
2019-05-25T14:00:28.481Z,42.77
2019-05-25T14:01:33.578Z,42.73
2019-05-25T14:02:39.244Z,42.62
2019-05-25T14:03:44.199Z,42.58
2019-05-25T14:04:49.725Z,42.59
2019-05-25T14:05:54.952Z,42.60
2019-05-25T14:07:00.545Z,42.61
2019-05-25T14:08:05.733Z,42.59
2019-05-25T14:09:11.512Z,42.54
2019-05-25T14:10:16.578Z,42.52